createdAt,value
2023-01-12T00:00:28.927Z,8.10
2023-01-12T00:02:56.513Z,7.90
2023-01-12T00:05:25.314Z,7.70
2023-01-12T00:13:46.875Z,7.90
2023-01-12T00:16:37.075Z,7.60
2023-01-12T00:19:10.344Z,7.60
2023-01-12T00:21:56.658Z,7.70
2023-01-12T00:24:26.105Z,7.70
2023-01-12T00:26:54.334Z,7.60
2023-01-12T00:29:23.451Z,7.90
2023-01-12T00:31:51.553Z,8.10
2023-01-12T00:39:24.464Z,7.80
2023-01-12T00:42:09.654Z,7.90
2023-01-12T00:44:54.724Z,7.60
2023-01-12T00:47:22.537Z,7.70
2023-01-12T00:49:50.813Z,7.70
2023-01-12T00:52:35.236Z,7.40
2023-01-12T00:55:04.283Z,7.70
2023-01-12T01:01:05.541Z,7.90
2023-01-12T01:03:33.009Z,8.00
2023-01-12T01:06:03.779Z,8.00
2023-01-12T01:08:31.325Z,7.80
2023-01-12T01:11:02.306Z,7.60
2023-01-12T01:13:29.585Z,7.60
2023-01-12T01:16:02.205Z,7.80
2023-01-12T01:18:29.971Z,7.50
2023-01-12T01:26:07.652Z,7.70
2023-01-12T01:28:36.341Z,7.90
2023-01-12T01:31:06.090Z,7.60
2023-01-12T01:33:35.851Z,7.70
2023-01-12T01:36:06.335Z,7.70
2023-01-12T01:38:34.195Z,7.70
2023-01-12T01:41:05.024Z,7.40
2023-01-12T01:44:04.025Z,7.60
2023-01-12T01:51:42.254Z,7.30
2023-01-12T01:54:10.334Z,7.20
2023-01-12T01:56:37.703Z,7.10
2023-01-12T01:59:09.800Z,7.20
2023-01-12T02:01:39.835Z,7.20
2023-01-12T02:04:07.981Z,7.30
2023-01-12T02:06:35.902Z,7.40
2023-01-12T02:14:30.904Z,7.50
2023-01-12T02:17:07.051Z,7.20
2023-01-12T02:20:05.392Z,7.40
2023-01-12T02:22:52.585Z,7.40
2023-01-12T02:25:42.366Z,7.60
2023-01-12T02:28:55.435Z,7.60
2023-01-12T02:38:57.373Z,7.50
2023-01-12T02:41:50.836Z,7.20
2023-01-12T02:44:30.703Z,7.40
2023-01-12T02:47:01.001Z,7.60
2023-01-12T02:49:32.222Z,7.70
2023-01-12T02:52:03.797Z,7.60
2023-01-12T02:54:34.524Z,7.70
2023-01-12T02:57:06.313Z,7.70
2023-01-12T03:04:40.912Z,7.60
2023-01-12T03:07:34.093Z,7.70
2023-01-12T03:10:26.020Z,7.90
2023-01-12T03:12:55.216Z,7.80
2023-01-12T03:15:25.933Z,7.90
2023-01-12T03:17:58.899Z,7.80
2023-01-12T03:20:31.894Z,8.00
2023-01-12T03:29:59.403Z,8.10
2023-01-12T03:32:28.778Z,8.00
2023-01-12T03:34:57.034Z,7.80
2023-01-12T03:37:28.596Z,7.60
2023-01-12T03:40:01.638Z,7.70
2023-01-12T03:42:33.287Z,7.60
2023-01-12T03:45:12.376Z,7.80
2023-01-12T03:52:46.362Z,7.80
2023-01-12T03:55:17.887Z,7.90
2023-01-12T03:57:46.515Z,7.80
2023-01-12T04:00:16.218Z,7.90
2023-01-12T04:02:43.891Z,8.30
2023-01-12T04:05:13.450Z,8.30
2023-01-12T04:07:44.333Z,8.30
2023-01-12T04:13:17.200Z,8.10
2023-01-12T04:18:31.119Z,7.80
2023-01-12T04:21:01.390Z,8.00
2023-01-12T04:23:34.170Z,8.10
2023-01-12T04:26:02.818Z,8.10
2023-01-12T04:28:31.519Z,8.20
2023-01-12T04:31:10.553Z,8.10
2023-01-12T04:38:43.797Z,8.10
2023-01-12T04:41:11.071Z,8.30
2023-01-12T04:43:39.427Z,8.00
2023-01-12T04:46:10.474Z,8.00
2023-01-12T04:48:40.102Z,7.90
2023-01-12T04:51:07.568Z,7.70
2023-01-12T04:53:34.907Z,7.80
2023-01-12T04:56:05.838Z,7.70
2023-01-12T05:04:25.738Z,7.60
2023-01-12T05:06:53.078Z,7.70
2023-01-12T05:09:38.510Z,8.00
2023-01-12T05:12:06.425Z,8.20
2023-01-12T05:14:33.944Z,8.00
2023-01-12T05:17:01.177Z,8.00
2023-01-12T05:19:29.917Z,7.90
2023-01-12T05:21:58.841Z,7.80
2023-01-12T05:29:30.304Z,8.00
2023-01-12T05:31:59.348Z,8.00
2023-01-12T05:34:27.129Z,8.10
2023-01-12T05:36:55.196Z,8.10
2023-01-12T05:39:24.049Z,8.20
2023-01-12T05:42:09.982Z,7.90
2023-01-12T05:44:38.287Z,7.80
2023-01-12T05:50:03.748Z,8.00
2023-01-12T05:52:31.796Z,8.00
2023-01-12T05:54:59.122Z,7.80
2023-01-12T05:57:26.938Z,7.90
2023-01-12T05:59:55.111Z,7.90
2023-01-12T06:02:22.743Z,8.00
2023-01-12T06:04:50.082Z,7.90
2023-01-12T06:07:18.870Z,7.70
2023-01-12T06:15:46.594Z,7.60
2023-01-12T06:18:14.240Z,7.70
2023-01-12T06:20:41.978Z,7.70
2023-01-12T06:23:09.545Z,7.90
2023-01-12T06:25:38.175Z,7.80
2023-01-12T06:28:06.787Z,7.80
2023-01-12T06:30:34.088Z,7.70
2023-01-12T06:33:03.649Z,8.00
2023-01-12T06:35:31.791Z,7.80
2023-01-12T06:42:59.461Z,7.60
2023-01-12T06:45:27.008Z,7.60
2023-01-12T06:47:56.717Z,7.60
2023-01-12T06:50:24.529Z,7.60
2023-01-12T06:52:51.960Z,7.30
2023-01-12T06:55:19.360Z,7.70
2023-01-12T06:57:47.314Z,7.70
2023-01-12T07:03:40.745Z,7.70
2023-01-12T07:06:10.536Z,7.70
2023-01-12T07:08:42.317Z,7.50
2023-01-12T07:11:12.180Z,7.40
2023-01-12T07:13:40.119Z,7.60
2023-01-12T07:16:08.982Z,7.40
2023-01-12T07:18:36.371Z,7.40
2023-01-12T07:21:06.130Z,7.30
2023-01-12T07:26:29.898Z,7.50
2023-01-12T07:28:57.739Z,7.70
2023-01-12T07:31:26.090Z,7.40
2023-01-12T07:33:53.636Z,7.60
2023-01-12T07:36:21.666Z,7.50
2023-01-12T07:38:49.930Z,7.50
2023-01-12T07:41:43.308Z,7.60
2023-01-12T07:49:12.258Z,7.30
2023-01-12T07:51:40.196Z,7.70
2023-01-12T07:54:08.054Z,7.70
2023-01-12T07:56:35.325Z,7.80
2023-01-12T07:59:02.878Z,7.60
2023-01-12T08:01:32.074Z,7.30
2023-01-12T08:03:59.400Z,7.30
2023-01-12T08:06:27.781Z,7.50
2023-01-12T08:14:01.860Z,7.60
2023-01-12T08:16:33.785Z,7.40
2023-01-12T08:19:04.784Z,7.40
2023-01-12T08:21:39.378Z,7.50
2023-01-12T08:24:09.006Z,7.40
2023-01-12T08:26:42.236Z,7.40
2023-01-12T08:29:17.528Z,7.60
2023-01-12T08:31:45.027Z,7.60
2023-01-12T08:39:15.543Z,7.60
2023-01-12T08:41:44.941Z,7.70
2023-01-12T08:44:12.418Z,7.70
2023-01-12T08:46:48.121Z,7.80
2023-01-12T08:49:17.623Z,7.90
2023-01-12T08:51:45.523Z,7.90
2023-01-12T08:54:15.704Z,8.10
2023-01-12T08:59:54.137Z,7.70
2023-01-12T09:02:21.279Z,8.00
2023-01-12T09:04:49.056Z,8.00
2023-01-12T09:07:16.666Z,7.90
2023-01-12T09:09:47.082Z,8.20
2023-01-12T09:12:14.928Z,7.90
2023-01-12T09:14:42.474Z,7.80
2023-01-12T09:17:11.311Z,8.00
2023-01-12T09:27:36.578Z,8.00
2023-01-12T09:30:06.425Z,8.00
2023-01-12T09:32:37.390Z,8.20
2023-01-12T09:35:06.176Z,8.10
2023-01-12T09:37:33.609Z,8.30
2023-01-12T09:40:00.921Z,8.30
2023-01-12T09:42:46.100Z,8.20
2023-01-12T09:53:28.788Z,7.90
2023-01-12T09:56:03.502Z,7.90
2023-01-12T09:59:02.129Z,8.10
2023-01-12T10:01:31.900Z,7.90
2023-01-12T10:04:02.557Z,8.10
2023-01-12T10:06:30.703Z,8.40
2023-01-12T10:09:02.950Z,8.30
2023-01-12T10:16:49.147Z,8.40
2023-01-12T10:19:26.860Z,8.10
2023-01-12T10:21:55.037Z,8.20
2023-01-12T10:24:24.906Z,8.50
2023-01-12T10:27:00.094Z,8.30
2023-01-12T10:29:31.242Z,8.40
2023-01-12T10:32:00.443Z,8.30
2023-01-12T10:34:29.901Z,8.50
2023-01-12T10:42:37.124Z,8.30
2023-01-12T10:45:24.222Z,8.60
2023-01-12T10:47:55.626Z,8.70
2023-01-12T10:50:26.847Z,8.80
2023-01-12T10:52:58.411Z,8.80
2023-01-12T10:55:30.929Z,8.60
2023-01-12T10:58:00.541Z,8.70
2023-01-12T11:00:29.975Z,8.90
2023-01-12T11:08:35.823Z,9.00
2023-01-12T11:11:15.857Z,8.90
2023-01-12T11:13:53.417Z,8.70
2023-01-12T11:16:25.049Z,9.00
2023-01-12T11:19:05.331Z,9.20
2023-01-12T11:21:37.199Z,9.00
2023-01-12T11:24:14.166Z,8.90
2023-01-12T11:34:55.418Z,8.60
2023-01-12T11:37:26.610Z,8.70
2023-01-12T11:40:03.808Z,8.60
2023-01-12T11:42:50.563Z,8.60
2023-01-12T11:45:23.432Z,8.80
2023-01-12T11:47:55.396Z,8.60
2023-01-12T11:50:28.934Z,8.50
2023-01-12T11:52:58.727Z,8.70
2023-01-12T12:00:51.522Z,8.70
2023-01-12T12:03:35.663Z,8.60
2023-01-12T12:06:14.102Z,8.90
2023-01-12T12:08:54.238Z,9.20
2023-01-12T12:11:38.887Z,9.10
2023-01-12T12:14:24.019Z,9.00
2023-01-12T12:17:04.169Z,9.10
2023-01-12T12:24:57.289Z,9.20
2023-01-12T12:27:35.594Z,9.30
2023-01-12T12:30:24.260Z,9.30
2023-01-12T12:32:58.870Z,9.10
2023-01-12T12:35:44.205Z,8.90
2023-01-12T12:38:25.051Z,9.10
2023-01-12T12:47:02.884Z,9.20
2023-01-12T12:49:34.875Z,9.50
2023-01-12T12:52:04.569Z,9.30
2023-01-12T12:54:37.775Z,9.20
2023-01-12T12:57:06.954Z,9.20
2023-01-12T12:59:59.046Z,9.30
2023-01-12T13:02:39.718Z,9.10
2023-01-12T13:10:32.015Z,9.30
2023-01-12T13:13:23.238Z,9.00
2023-01-12T13:15:50.772Z,9.10
2023-01-12T13:18:50.661Z,9.20
2023-01-12T13:21:55.410Z,9.30
2023-01-12T13:24:39.610Z,9.30
2023-01-12T13:27:40.991Z,9.10
2023-01-12T13:35:59.989Z,9.20
2023-01-12T13:38:43.260Z,9.30
2023-01-12T13:41:46.590Z,9.40
2023-01-12T13:44:58.635Z,9.50
2023-01-12T13:47:32.689Z,9.40
2023-01-12T13:50:03.538Z,9.40
2023-01-12T13:52:33.609Z,9.40
2023-01-12T13:55:08.456Z,9.40
2023-01-12T14:05:55.377Z,9.50
2023-01-12T14:08:54.844Z,9.70
2023-01-12T14:11:59.709Z,9.80
2023-01-12T14:15:12.151Z,9.60
2023-01-12T14:17:53.978Z,9.50
2023-01-12T14:20:25.268Z,9.40
2023-01-12T14:31:09.541Z,9.50
2023-01-12T14:33:41.065Z,9.50
2023-01-12T14:36:28.283Z,9.40
2023-01-12T14:39:10.882Z,9.40
2023-01-12T14:41:59.154Z,9.60
2023-01-12T14:44:56.781Z,9.70
2023-01-12T14:47:40.858Z,9.70
2023-01-12T14:50:23.139Z,9.60
2023-01-12T14:58:05.288Z,9.30
2023-01-12T15:00:53.239Z,9.50
2023-01-12T15:03:44.115Z,9.40
2023-01-12T15:06:35.349Z,9.30
2023-01-12T15:09:03.937Z,9.60
2023-01-12T15:11:40.688Z,9.70
2023-01-12T15:14:30.207Z,9.80
2023-01-12T15:17:16.584Z,9.80
2023-01-12T15:20:03.090Z,9.90
2023-01-12T15:27:50.377Z,9.60
2023-01-12T15:30:21.769Z,9.80
2023-01-12T15:32:49.359Z,9.70
2023-01-12T15:35:21.685Z,9.60
2023-01-12T15:37:51.633Z,9.80
2023-01-12T15:40:20.631Z,9.80
2023-01-12T15:42:53.092Z,9.80
2023-01-12T15:48:01.408Z,10.00
2023-01-12T15:50:30.278Z,9.90
2023-01-12T15:53:02.023Z,9.70
2023-01-12T15:55:33.112Z,9.80
2023-01-12T15:58:00.248Z,9.70
2023-01-12T16:00:28.643Z,9.40
2023-01-12T16:02:56.039Z,9.70
2023-01-12T16:10:30.497Z,9.90
2023-01-12T16:13:01.348Z,9.40
2023-01-12T16:15:31.841Z,9.60
2023-01-12T16:18:02.410Z,9.80
2023-01-12T16:20:30.429Z,9.60
2023-01-12T16:23:02.584Z,9.80
2023-01-12T16:25:35.714Z,10.00
2023-01-12T16:28:08.397Z,10.10
2023-01-12T16:35:43.048Z,10.20
2023-01-12T16:38:24.228Z,10.20
2023-01-12T16:41:22.949Z,10.20
2023-01-12T16:43:56.716Z,9.90
2023-01-12T16:46:27.852Z,9.80
2023-01-12T16:52:21.510Z,9.60
2023-01-12T16:54:57.625Z,9.70
2023-01-12T17:02:35.663Z,9.70
2023-01-12T17:05:04.720Z,9.90
2023-01-12T17:07:32.488Z,10.00
2023-01-12T17:10:02.205Z,9.80
2023-01-12T17:12:31.331Z,9.60
2023-01-12T17:14:59.572Z,9.90
2023-01-12T17:17:28.512Z,9.80
2023-01-12T17:19:59.159Z,9.80
2023-01-12T17:27:35.956Z,9.90
2023-01-12T17:30:09.404Z,10.00
2023-01-12T17:32:37.495Z,9.70
2023-01-12T17:35:09.624Z,9.90
2023-01-12T17:37:39.807Z,9.90
2023-01-12T17:40:12.682Z,9.90
2023-01-12T17:42:59.796Z,9.80
2023-01-12T17:45:29.316Z,9.70
2023-01-12T17:53:09.606Z,9.90
2023-01-12T17:55:47.459Z,9.90
2023-01-12T17:58:19.201Z,9.50
2023-01-12T18:00:47.323Z,9.50
2023-01-12T18:03:15.309Z,9.50
2023-01-12T18:05:47.015Z,9.40
2023-01-12T18:08:17.464Z,9.60
2023-01-12T18:13:28.523Z,9.60
2023-01-12T18:15:55.921Z,9.20
2023-01-12T18:18:23.924Z,9.10
2023-01-12T18:20:53.073Z,9.20
2023-01-12T18:23:20.632Z,9.30
2023-01-12T18:25:48.876Z,9.30
2023-01-12T18:28:17.797Z,9.50
2023-01-12T18:30:49.030Z,9.50
2023-01-12T18:38:29.249Z,9.60
2023-01-12T18:41:25.325Z,9.60
2023-01-12T18:44:03.967Z,9.40
2023-01-12T18:46:47.007Z,9.60
2023-01-12T18:49:19.145Z,9.50
2023-01-12T18:52:10.712Z,9.60
2023-01-12T18:55:30.092Z,9.70
2023-01-12T18:58:20.229Z,9.10
2023-01-12T19:06:11.365Z,9.20
2023-01-12T19:09:12.579Z,9.40
2023-01-12T19:11:42.642Z,9.50
2023-01-12T19:14:29.026Z,9.40
2023-01-12T19:17:15.693Z,9.40
2023-01-12T19:19:46.833Z,9.10
2023-01-12T19:22:36.273Z,9.40
2023-01-12T19:30:58.559Z,9.50
2023-01-12T19:33:31.364Z,9.40
2023-01-12T19:36:06.870Z,9.20
2023-01-12T19:38:39.058Z,9.10
2023-01-12T19:41:43.573Z,9.20
2023-01-12T19:44:14.096Z,9.10
2023-01-12T19:46:47.897Z,9.20
2023-01-12T19:49:23.785Z,9.20
2023-01-12T19:57:01.367Z,9.50
2023-01-12T19:59:31.536Z,9.40
2023-01-12T20:02:04.417Z,9.20
2023-01-12T20:04:35.458Z,9.10
2023-01-12T20:07:06.488Z,9.30
2023-01-12T20:09:38.390Z,9.50
2023-01-12T20:12:12.671Z,9.50
2023-01-12T20:20:01.155Z,9.30
2023-01-12T20:22:30.768Z,9.20
2023-01-12T20:25:11.747Z,9.20
2023-01-12T20:28:07.940Z,9.10
2023-01-12T20:30:58.602Z,9.20
2023-01-12T20:33:32.426Z,9.10
2023-01-12T20:36:04.589Z,9.20
2023-01-12T20:38:36.180Z,9.30
2023-01-12T20:47:00.980Z,9.50
2023-01-12T20:49:30.536Z,9.00
2023-01-12T20:52:01.259Z,9.00
2023-01-12T20:54:29.937Z,9.20
2023-01-12T20:56:58.818Z,9.40
2023-01-12T20:59:26.628Z,9.50
2023-01-12T21:01:55.935Z,9.60
2023-01-12T21:04:23.447Z,9.30
2023-01-12T21:12:01.639Z,9.10
2023-01-12T21:14:33.498Z,9.10
2023-01-12T21:17:03.002Z,9.20
2023-01-12T21:19:33.768Z,9.10
2023-01-12T21:22:01.665Z,9.10
2023-01-12T21:24:30.212Z,9.40
2023-01-12T21:27:00.970Z,9.60
2023-01-12T21:29:30.014Z,9.50
2023-01-12T21:34:58.121Z,9.10
2023-01-12T21:37:30.559Z,9.40
2023-01-12T21:39:58.955Z,9.60
2023-01-12T21:42:47.709Z,9.50
2023-01-12T21:45:17.354Z,9.30
2023-01-12T21:47:48.049Z,9.20
2023-01-12T21:50:24.472Z,9.20
2023-01-12T21:52:55.143Z,9.50
2023-01-12T22:00:30.360Z,9.70
2023-01-12T22:03:00.737Z,9.70
2023-01-12T22:05:29.798Z,9.80
2023-01-12T22:07:58.636Z,9.90
2023-01-12T22:10:32.335Z,9.70
2023-01-12T22:13:02.503Z,9.80
2023-01-12T22:15:31.992Z,9.60
2023-01-12T22:23:07.131Z,9.40
2023-01-12T22:25:35.394Z,9.40
2023-01-12T22:28:03.313Z,9.40
2023-01-12T22:30:30.869Z,9.40
2023-01-12T22:32:58.144Z,9.10
2023-01-12T22:35:26.694Z,9.30
2023-01-12T22:37:55.187Z,9.50
2023-01-12T22:43:21.206Z,9.60
2023-01-12T22:45:50.314Z,9.50
2023-01-12T22:48:18.631Z,9.60
2023-01-12T22:50:47.605Z,9.50
2023-01-12T22:53:16.226Z,9.70
2023-01-12T22:55:43.908Z,9.60
2023-01-12T22:58:14.745Z,9.50
2023-01-12T23:00:43.556Z,9.40
2023-01-12T23:08:17.427Z,9.20
2023-01-12T23:10:45.885Z,9.30
2023-01-12T23:13:16.593Z,9.10
2023-01-12T23:15:46.962Z,9.20
2023-01-12T23:18:15.926Z,9.30
2023-01-12T23:20:43.718Z,9.40
2023-01-12T23:23:12.566Z,9.40
2023-01-12T23:25:41.803Z,9.50
2023-01-12T23:33:15.329Z,9.30
2023-01-12T23:35:44.630Z,9.30
2023-01-12T23:38:15.703Z,9.40
2023-01-12T23:40:44.683Z,9.30
2023-01-12T23:43:12.392Z,9.50
2023-01-12T23:45:40.652Z,9.50
2023-01-12T23:48:07.943Z,9.50
2023-01-12T23:58:12.290Z,9.90
